createdAt,value
2018-11-03T00:00:13.611Z,0
2018-11-03T00:01:22.793Z,0
2018-11-03T00:02:31.426Z,0
2018-11-03T00:03:40.061Z,0
2018-11-03T00:04:48.704Z,0
2018-11-03T00:05:57.343Z,0
2018-11-03T00:07:05.975Z,0
2018-11-03T00:08:14.878Z,0
2018-11-03T00:09:23.516Z,0
2018-11-03T00:10:32.750Z,0
2018-11-03T00:11:41.385Z,0
2018-11-03T00:12:50.015Z,0
2018-11-03T00:13:58.657Z,0
2018-11-03T00:15:07.292Z,0
2018-11-03T00:16:15.931Z,0
2018-11-03T00:17:24.562Z,0
2018-11-03T00:18:33.200Z,0
2018-11-03T00:19:41.834Z,0
2018-11-03T00:20:50.471Z,0
2018-11-03T00:21:59.387Z,0
2018-11-03T00:23:08.018Z,0
2018-11-03T00:24:16.656Z,0
2018-11-03T00:25:25.293Z,0
2018-11-03T00:26:33.936Z,0
2018-11-03T00:27:42.563Z,0
2018-11-03T00:28:51.200Z,0
2018-11-03T00:30:00.108Z,0
2018-11-03T00:31:08.751Z,0
2018-11-03T00:32:17.377Z,0
2018-11-03T00:33:26.014Z,0
2018-11-03T00:34:34.648Z,0
2018-11-03T00:35:43.290Z,0
2018-11-03T00:36:52.194Z,0
2018-11-03T00:38:00.834Z,0
2018-11-03T00:39:09.465Z,0
2018-11-03T00:40:18.173Z,0
2018-11-03T00:41:26.745Z,0
2018-11-03T00:42:35.438Z,0
2018-11-03T00:43:44.013Z,0
2018-11-03T00:44:52.642Z,0
2018-11-03T00:46:01.556Z,0
2018-11-03T00:47:10.452Z,0
2018-11-03T00:48:19.367Z,0
2018-11-03T00:49:27.990Z,0
2018-11-03T00:50:36.635Z,0
2018-11-03T00:51:45.267Z,0
2018-11-03T00:52:53.905Z,0
2018-11-03T00:54:02.532Z,0
2018-11-03T00:55:11.167Z,0
2018-11-03T00:56:19.806Z,0
2018-11-03T00:57:28.444Z,0
2018-11-03T00:58:37.083Z,0
2018-11-03T00:59:45.708Z,0
2018-11-03T01:00:54.348Z,0
2018-11-03T01:02:02.978Z,0
2018-11-03T01:03:11.623Z,0
2018-11-03T01:04:20.257Z,0
2018-11-03T01:05:28.894Z,0
2018-11-03T01:06:37.530Z,0
2018-11-03T01:07:46.174Z,0
2018-11-03T01:08:54.801Z,0
2018-11-03T01:10:03.438Z,0
2018-11-03T01:11:12.072Z,0
2018-11-03T01:12:20.715Z,0
2018-11-03T01:13:29.348Z,0
2018-11-03T01:14:37.972Z,0
2018-11-03T01:15:46.607Z,0
2018-11-03T01:16:55.239Z,0
2018-11-03T01:18:03.883Z,0
2018-11-03T01:19:12.779Z,0
2018-11-03T01:20:21.417Z,0
2018-11-03T01:21:30.043Z,0
2018-11-03T01:22:38.692Z,0
2018-11-03T01:23:47.422Z,0
2018-11-03T01:24:55.958Z,0
2018-11-03T01:26:04.585Z,0
2018-11-03T01:27:13.228Z,0
2018-11-03T01:28:21.860Z,0
2018-11-03T01:29:30.506Z,0
2018-11-03T01:30:39.131Z,0
2018-11-03T01:31:47.772Z,0
2018-11-03T01:32:56.821Z,0
2018-11-03T01:34:05.462Z,0
2018-11-03T01:35:14.361Z,0
2018-11-03T01:36:22.988Z,0
2018-11-03T01:37:31.625Z,0
2018-11-03T01:38:40.261Z,0
2018-11-03T01:39:48.900Z,0
2018-11-03T01:40:57.534Z,0
2018-11-03T01:42:06.169Z,0
2018-11-03T01:43:14.806Z,0
2018-11-03T01:44:23.446Z,0
2018-11-03T01:45:32.074Z,0
2018-11-03T01:46:40.709Z,0
2018-11-03T01:47:49.343Z,0
2018-11-03T01:48:58.263Z,0
2018-11-03T01:50:06.898Z,0
2018-11-03T01:51:15.800Z,0
2018-11-03T01:52:24.433Z,0
2018-11-03T01:53:33.068Z,0
2018-11-03T01:54:41.709Z,0
2018-11-03T01:55:50.343Z,0
2018-11-03T01:56:58.978Z,0
2018-11-03T01:58:07.611Z,0
2018-11-03T01:59:16.252Z,0
2018-11-03T02:00:24.896Z,0
2018-11-03T02:01:33.803Z,0
2018-11-03T02:02:42.709Z,0
2018-11-03T02:03:51.612Z,0
2018-11-03T02:05:00.247Z,0
2018-11-03T02:06:08.892Z,0
2018-11-03T02:07:17.522Z,0
2018-11-03T02:08:26.160Z,0
2018-11-03T02:09:34.796Z,0
2018-11-03T02:10:43.701Z,0
2018-11-03T02:11:52.339Z,0
2018-11-03T02:13:00.970Z,0
2018-11-03T02:14:09.876Z,0
2018-11-03T02:15:18.511Z,0
2018-11-03T02:16:27.150Z,0
2018-11-03T02:17:35.785Z,0
2018-11-03T02:18:44.419Z,0
2018-11-03T02:19:53.329Z,0
2018-11-03T02:21:01.971Z,0
2018-11-03T02:22:10.877Z,0
2018-11-03T02:23:19.505Z,0
2018-11-03T02:24:28.135Z,0
2018-11-03T02:25:36.775Z,0
2018-11-03T02:26:45.412Z,0
2018-11-03T02:27:54.050Z,0
2018-11-03T02:29:02.685Z,0
2018-11-03T02:30:11.599Z,0
2018-11-03T02:31:20.229Z,0
2018-11-03T02:32:28.866Z,0
2018-11-03T02:33:39.508Z,0
2018-11-03T02:34:48.141Z,0
2018-11-03T02:35:56.777Z,0
2018-11-03T02:37:05.407Z,0
2018-11-03T02:38:14.369Z,0
2018-11-03T02:39:22.994Z,0
2018-11-03T02:40:32.246Z,0
2018-11-03T02:41:40.887Z,0
2018-11-03T02:42:49.524Z,0
2018-11-03T02:43:58.155Z,0
2018-11-03T02:45:06.792Z,0
2018-11-03T02:46:15.713Z,0
2018-11-03T02:47:24.624Z,0
2018-11-03T02:48:33.262Z,0
2018-11-03T02:49:41.885Z,0
2018-11-03T02:50:50.797Z,0
2018-11-03T02:51:59.430Z,0
2018-11-03T02:53:08.351Z,0
2018-11-03T02:54:16.984Z,0
2018-11-03T02:55:25.626Z,0
2018-11-03T02:56:34.266Z,0
2018-11-03T02:57:43.189Z,0
2018-11-03T02:58:51.815Z,0
2018-11-03T03:00:00.729Z,0
2018-11-03T03:01:09.361Z,0
2018-11-03T03:02:18.015Z,0
2018-11-03T03:03:27.456Z,0
2018-11-03T03:04:36.083Z,0
2018-11-03T03:05:44.993Z,0
2018-11-03T03:06:53.895Z,0
2018-11-03T03:08:02.537Z,0
2018-11-03T03:09:11.436Z,0
2018-11-03T03:10:20.105Z,0
2018-11-03T03:11:28.705Z,0
2018-11-03T03:12:37.354Z,0
2018-11-03T03:13:45.986Z,0
2018-11-03T03:14:54.640Z,0
2018-11-03T03:16:04.287Z,0
2018-11-03T03:17:12.938Z,0
2018-11-03T03:18:21.571Z,0
2018-11-03T03:19:30.210Z,0
2018-11-03T03:20:38.834Z,0
2018-11-03T03:21:47.477Z,0
2018-11-03T03:22:56.401Z,0
2018-11-03T03:24:05.021Z,0
2018-11-03T03:25:13.922Z,0
2018-11-03T03:26:22.827Z,0
2018-11-03T03:27:31.740Z,0
2018-11-03T03:28:40.693Z,0
2018-11-03T03:29:49.599Z,0
2018-11-03T03:30:58.538Z,0
2018-11-03T03:32:07.418Z,0
2018-11-03T03:33:16.057Z,0
2018-11-03T03:34:24.960Z,0
2018-11-03T03:35:33.603Z,0
2018-11-03T03:36:42.240Z,0
2018-11-03T03:37:50.920Z,0
2018-11-03T03:38:59.775Z,0
2018-11-03T03:40:08.417Z,0
2018-11-03T03:41:17.063Z,0
2018-11-03T03:42:25.979Z,0
2018-11-03T03:43:34.616Z,0
2018-11-03T03:44:43.244Z,0
2018-11-03T03:45:51.886Z,0
2018-11-03T03:47:00.796Z,0
2018-11-03T03:48:09.440Z,0
2018-11-03T03:49:18.336Z,0
2018-11-03T03:50:27.590Z,0
2018-11-03T03:51:36.225Z,0
2018-11-03T03:52:44.871Z,0
2018-11-03T03:53:53.504Z,0
2018-11-03T03:55:02.143Z,0
2018-11-03T03:56:10.777Z,0
2018-11-03T03:57:19.421Z,0
2018-11-03T03:58:28.060Z,0
2018-11-03T03:59:37.221Z,0
2018-11-03T04:00:45.856Z,0
2018-11-03T04:01:54.489Z,0
2018-11-03T04:03:03.686Z,0
2018-11-03T04:04:12.316Z,0
2018-11-03T04:05:20.957Z,0
2018-11-03T04:06:29.853Z,0
2018-11-03T04:07:38.501Z,0
2018-11-03T04:08:47.136Z,0
2018-11-03T04:09:56.052Z,0
2018-11-03T04:11:04.687Z,0
2018-11-03T04:12:13.324Z,0
2018-11-03T04:13:21.957Z,0
2018-11-03T04:14:30.613Z,0
2018-11-03T04:15:39.225Z,0
2018-11-03T04:16:47.894Z,0
2018-11-03T04:17:56.771Z,0
2018-11-03T04:19:05.412Z,0
2018-11-03T04:20:14.048Z,0
2018-11-03T04:21:22.672Z,0
2018-11-03T04:22:31.581Z,0
2018-11-03T04:23:40.215Z,0
2018-11-03T04:24:49.164Z,0
2018-11-03T04:25:57.793Z,0
2018-11-03T04:27:06.429Z,0
2018-11-03T04:28:15.065Z,0
2018-11-03T04:29:23.710Z,0
2018-11-03T04:30:32.342Z,0
2018-11-03T04:31:40.984Z,0
2018-11-03T04:32:50.198Z,0
2018-11-03T04:33:58.838Z,0
2018-11-03T04:35:08.081Z,0
2018-11-03T04:36:16.988Z,0
2018-11-03T04:37:25.634Z,0
2018-11-03T04:38:34.270Z,0
2018-11-03T04:39:43.173Z,0
2018-11-03T04:40:51.813Z,0
2018-11-03T04:42:00.447Z,0
2018-11-03T04:43:09.088Z,0
2018-11-03T04:44:17.722Z,0
2018-11-03T04:45:26.462Z,0
2018-11-03T04:46:34.994Z,0
2018-11-03T04:47:43.932Z,0
2018-11-03T04:48:52.571Z,0
2018-11-03T04:50:01.471Z,0
2018-11-03T04:51:10.119Z,0
2018-11-03T04:52:18.742Z,0
2018-11-03T04:53:27.379Z,0
2018-11-03T04:54:36.013Z,0
2018-11-03T04:55:44.650Z,0
2018-11-03T04:56:53.287Z,0
2018-11-03T04:58:02.200Z,0
2018-11-03T04:59:10.835Z,0
2018-11-03T05:00:19.470Z,0
2018-11-03T05:01:28.110Z,0
2018-11-03T05:02:37.006Z,0
2018-11-03T05:03:45.646Z,0
2018-11-03T05:04:54.281Z,0
2018-11-03T05:06:02.955Z,0
2018-11-03T05:07:11.548Z,0
2018-11-03T05:08:20.184Z,0
2018-11-03T05:09:28.816Z,0
2018-11-03T05:10:37.539Z,0
2018-11-03T05:11:46.651Z,0
2018-11-03T05:12:55.321Z,0
2018-11-03T05:14:03.922Z,0
2018-11-03T05:15:12.555Z,0
2018-11-03T05:16:21.465Z,0
2018-11-03T05:17:30.100Z,0
2018-11-03T05:18:38.729Z,0
2018-11-03T05:19:47.358Z,0
2018-11-03T05:20:56.013Z,0
2018-11-03T05:22:04.905Z,0
2018-11-03T05:23:13.539Z,0
2018-11-03T05:24:22.166Z,0
2018-11-03T05:25:30.805Z,0
2018-11-03T05:26:39.715Z,0
2018-11-03T05:27:48.347Z,0
2018-11-03T05:28:56.977Z,0
2018-11-03T05:30:05.612Z,0
2018-11-03T05:31:14.369Z,0
2018-11-03T05:32:22.884Z,0
2018-11-03T05:33:31.541Z,0
2018-11-03T05:34:40.151Z,0
2018-11-03T05:35:48.785Z,0
2018-11-03T05:36:57.418Z,0
2018-11-03T05:38:06.088Z,0
2018-11-03T05:39:15.428Z,0
2018-11-03T05:40:24.064Z,0
2018-11-03T05:41:32.695Z,0
2018-11-03T05:42:41.337Z,0
2018-11-03T05:43:49.968Z,0
2018-11-03T05:44:58.602Z,0
2018-11-03T05:46:07.236Z,0
2018-11-03T05:47:16.524Z,0
2018-11-03T05:48:25.157Z,0
2018-11-03T05:49:33.788Z,0
2018-11-03T05:50:42.843Z,0
2018-11-03T05:51:51.476Z,0
2018-11-03T05:53:00.115Z,0
2018-11-03T05:54:08.749Z,0
2018-11-03T05:55:17.383Z,0
2018-11-03T05:56:26.014Z,0
2018-11-03T05:57:34.651Z,0
2018-11-03T05:58:43.355Z,0
2018-11-03T05:59:51.919Z,0
2018-11-03T06:01:00.554Z,0
2018-11-03T06:02:09.452Z,0
2018-11-03T06:03:18.086Z,0
2018-11-03T06:04:26.723Z,0
2018-11-03T06:05:35.354Z,0
2018-11-03T06:06:43.991Z,0
2018-11-03T06:07:52.626Z,0
2018-11-03T06:09:01.812Z,0
2018-11-03T06:10:11.084Z,0
2018-11-03T06:11:19.714Z,0
2018-11-03T06:12:28.620Z,0
2018-11-03T06:13:37.284Z,0
2018-11-03T06:14:45.899Z,0
2018-11-03T06:15:54.525Z,0
2018-11-03T06:17:03.478Z,0
2018-11-03T06:18:12.117Z,5
2018-11-03T06:19:20.757Z,5
2018-11-03T06:20:29.690Z,5
2018-11-03T06:21:38.327Z,5
2018-11-03T06:22:48.923Z,5
2018-11-03T06:23:58.122Z,5
2018-11-03T06:25:06.754Z,5
2018-11-03T06:26:15.387Z,5
2018-11-03T06:27:24.017Z,5
2018-11-03T06:28:32.679Z,5
2018-11-03T06:29:41.583Z,10
2018-11-03T06:30:50.219Z,10
2018-11-03T06:31:58.859Z,10
2018-11-03T06:33:07.489Z,10
2018-11-03T06:34:16.398Z,10
2018-11-03T06:35:25.641Z,10
2018-11-03T06:36:34.170Z,15
2018-11-03T06:37:42.801Z,15
2018-11-03T06:38:51.522Z,15
2018-11-03T06:40:00.079Z,15
2018-11-03T06:41:08.715Z,15
2018-11-03T06:42:17.336Z,15
2018-11-03T06:43:26.243Z,20
2018-11-03T06:44:34.878Z,20
2018-11-03T06:45:43.522Z,20
2018-11-03T06:46:52.154Z,20
2018-11-03T06:48:00.814Z,25
2018-11-03T06:49:09.419Z,25
2018-11-03T06:50:18.050Z,25
2018-11-03T06:51:26.696Z,30
2018-11-03T06:52:35.324Z,30
2018-11-03T06:53:43.962Z,35
2018-11-03T06:54:52.867Z,35
2018-11-03T06:56:01.518Z,35
2018-11-03T06:57:10.145Z,35
2018-11-03T06:58:19.279Z,35
2018-11-03T06:59:27.914Z,40
2018-11-03T07:00:36.558Z,40
2018-11-03T07:01:45.192Z,40
2018-11-03T07:02:53.827Z,45
2018-11-03T07:04:02.460Z,45
2018-11-03T07:05:11.172Z,45
2018-11-03T07:06:19.739Z,50
2018-11-03T07:07:28.657Z,50
2018-11-03T07:08:37.299Z,50
2018-11-03T07:09:45.923Z,55
2018-11-03T07:10:54.566Z,55
2018-11-03T07:12:03.221Z,55
2018-11-03T07:13:11.847Z,60
2018-11-03T07:14:20.462Z,60
2018-11-03T07:15:29.379Z,60
2018-11-03T07:16:38.013Z,60
2018-11-03T07:17:46.650Z,60
2018-11-03T07:18:55.280Z,60
2018-11-03T07:20:04.188Z,60
2018-11-03T07:21:12.857Z,60
2018-11-03T07:22:21.466Z,60
2018-11-03T07:23:30.102Z,60
2018-11-03T07:24:38.728Z,60
2018-11-03T07:25:47.636Z,60
2018-11-03T07:26:56.269Z,60
2018-11-03T07:28:05.177Z,60
2018-11-03T07:29:13.810Z,65
2018-11-03T07:30:22.439Z,60
2018-11-03T07:31:31.626Z,60
2018-11-03T07:32:40.290Z,60
2018-11-03T07:33:48.903Z,60
2018-11-03T07:34:57.805Z,60
2018-11-03T07:36:06.445Z,60
2018-11-03T07:37:15.072Z,55
2018-11-03T07:38:23.708Z,55
2018-11-03T07:39:32.348Z,55
2018-11-03T07:40:41.046Z,60
2018-11-03T07:41:49.625Z,65
2018-11-03T07:42:58.252Z,55
2018-11-03T07:44:06.906Z,55
2018-11-03T07:45:15.520Z,60
2018-11-03T07:46:24.164Z,60
2018-11-03T07:47:32.789Z,65
2018-11-03T07:48:41.792Z,65
2018-11-03T07:49:50.763Z,65
2018-11-03T07:50:59.407Z,70
2018-11-03T07:52:08.032Z,65
2018-11-03T07:53:16.676Z,65
2018-11-03T07:54:25.598Z,60
2018-11-03T07:55:34.224Z,65
2018-11-03T07:56:42.859Z,65
2018-11-03T07:57:51.489Z,65
2018-11-03T07:59:00.125Z,65
2018-11-03T08:00:08.817Z,65
2018-11-03T08:01:17.408Z,70
2018-11-03T08:02:26.039Z,65
2018-11-03T08:03:34.948Z,65
2018-11-03T08:04:43.577Z,60
2018-11-03T08:05:52.520Z,60
2018-11-03T08:07:01.167Z,60
2018-11-03T08:08:09.797Z,60
2018-11-03T08:09:18.425Z,60
2018-11-03T08:10:27.074Z,60
2018-11-03T08:11:35.706Z,60
2018-11-03T08:12:44.345Z,60
2018-11-03T08:13:52.969Z,60
2018-11-03T08:15:01.608Z,60
2018-11-03T08:16:10.246Z,60
2018-11-03T08:17:18.885Z,60
2018-11-03T08:18:27.797Z,60
2018-11-03T08:19:36.973Z,60
2018-11-03T08:20:45.609Z,60
2018-11-03T08:21:54.240Z,60
2018-11-03T08:23:02.892Z,60
2018-11-03T08:24:11.520Z,65
2018-11-03T08:25:20.172Z,65
2018-11-03T08:26:29.071Z,65
2018-11-03T08:27:37.999Z,65
2018-11-03T08:28:46.628Z,65
2018-11-03T08:29:55.268Z,70
2018-11-03T08:31:03.901Z,70
2018-11-03T08:32:12.591Z,75
2018-11-03T08:33:21.177Z,80
2018-11-03T08:34:29.812Z,80
2018-11-03T08:35:38.450Z,80
2018-11-03T08:36:47.086Z,80
2018-11-03T08:37:55.728Z,85
2018-11-03T08:39:04.624Z,90
2018-11-03T08:40:13.261Z,95
2018-11-03T08:41:22.435Z,95
2018-11-03T08:42:31.117Z,100
2018-11-03T08:43:39.716Z,105
2018-11-03T08:44:48.353Z,100
2018-11-03T08:45:56.983Z,95
2018-11-03T08:47:05.894Z,90
2018-11-03T08:48:14.619Z,95
2018-11-03T08:49:23.172Z,95
2018-11-03T08:50:31.803Z,100
2018-11-03T08:51:40.452Z,110
2018-11-03T08:52:49.079Z,105
2018-11-03T08:53:57.987Z,95
2018-11-03T08:55:06.625Z,110
2018-11-03T08:56:15.259Z,110
2018-11-03T08:57:23.897Z,110
2018-11-03T08:58:32.534Z,100
2018-11-03T08:59:41.657Z,110
2018-11-03T09:00:50.184Z,115
2018-11-03T09:01:58.871Z,110
2018-11-03T09:03:07.727Z,110
2018-11-03T09:04:16.377Z,110
2018-11-03T09:05:25.027Z,110
2018-11-03T09:06:34.007Z,115
2018-11-03T09:07:42.643Z,110
2018-11-03T09:08:51.282Z,115
2018-11-03T09:09:59.917Z,120
2018-11-03T09:11:08.553Z,110
2018-11-03T09:12:17.192Z,105
2018-11-03T09:13:25.818Z,110
2018-11-03T09:14:34.895Z,120
2018-11-03T09:15:43.440Z,125
2018-11-03T09:16:52.081Z,125
2018-11-03T09:18:00.980Z,125
2018-11-03T09:19:09.621Z,120
2018-11-03T09:20:18.288Z,115
2018-11-03T09:21:26.894Z,110
2018-11-03T09:22:35.632Z,105
2018-11-03T09:23:44.473Z,90
2018-11-03T09:24:53.108Z,105
2018-11-03T09:26:01.750Z,105
2018-11-03T09:27:10.383Z,105
2018-11-03T09:28:19.023Z,100
2018-11-03T09:29:27.663Z,105
2018-11-03T09:30:36.304Z,110
2018-11-03T09:31:45.018Z,110
2018-11-03T09:32:53.571Z,110
2018-11-03T09:34:02.210Z,105
2018-11-03T09:35:10.843Z,110
2018-11-03T09:36:19.760Z,110
2018-11-03T09:37:28.921Z,110
2018-11-03T09:38:37.935Z,110
2018-11-03T09:39:46.872Z,110
2018-11-03T09:40:55.500Z,110
2018-11-03T09:42:04.428Z,110
2018-11-03T09:43:13.078Z,110
2018-11-03T09:44:21.707Z,110
2018-11-03T09:45:30.379Z,110
2018-11-03T09:46:38.988Z,110
2018-11-03T09:47:47.900Z,100
2018-11-03T09:48:56.537Z,110
2018-11-03T09:50:05.170Z,115
2018-11-03T09:51:13.918Z,110
2018-11-03T09:52:22.888Z,110
2018-11-03T09:53:31.529Z,115
2018-11-03T09:54:40.163Z,115
2018-11-03T09:55:48.809Z,125
2018-11-03T09:56:57.446Z,120
2018-11-03T09:58:06.092Z,125
2018-11-03T09:59:14.728Z,125
2018-11-03T10:00:23.377Z,115
2018-11-03T10:01:32.014Z,125
2018-11-03T10:02:40.651Z,120
2018-11-03T10:03:49.279Z,135
2018-11-03T10:04:58.188Z,130
2018-11-03T10:06:06.834Z,135
2018-11-03T10:07:15.474Z,130
2018-11-03T10:08:24.108Z,125
2018-11-03T10:09:32.743Z,120
2018-11-03T10:10:41.380Z,120
2018-11-03T10:11:50.013Z,120
2018-11-03T10:12:58.661Z,120
2018-11-03T10:14:07.292Z,120
2018-11-03T10:15:16.201Z,125
2018-11-03T10:16:24.833Z,130
2018-11-03T10:17:33.484Z,130
2018-11-03T10:18:42.116Z,130
2018-11-03T10:19:51.063Z,145
2018-11-03T10:20:59.966Z,140
2018-11-03T10:22:08.650Z,140
2018-11-03T10:23:17.524Z,135
2018-11-03T10:24:26.159Z,145
2018-11-03T10:25:34.801Z,140
2018-11-03T10:26:43.439Z,140
2018-11-03T10:27:52.084Z,140
2018-11-03T10:29:00.722Z,135
2018-11-03T10:30:09.363Z,140
2018-11-03T10:31:17.994Z,140
2018-11-03T10:32:26.637Z,145
2018-11-03T10:33:35.296Z,135
2018-11-03T10:34:44.190Z,125
2018-11-03T10:35:52.823Z,130
2018-11-03T10:37:01.474Z,135
2018-11-03T10:38:10.108Z,135
2018-11-03T10:39:18.748Z,135
2018-11-03T10:40:27.652Z,130
2018-11-03T10:41:36.297Z,135
2018-11-03T10:42:44.936Z,135
2018-11-03T10:43:53.576Z,135
2018-11-03T10:45:02.238Z,135
2018-11-03T10:46:10.918Z,135
2018-11-03T10:47:19.498Z,135
2018-11-03T10:48:28.131Z,135
2018-11-03T10:49:36.778Z,120
2018-11-03T10:50:45.731Z,115
2018-11-03T10:51:54.367Z,130
2018-11-03T10:53:03.009Z,130
2018-11-03T10:54:11.646Z,120
2018-11-03T10:55:20.282Z,115
2018-11-03T10:56:29.470Z,125
2018-11-03T10:57:38.107Z,130
2018-11-03T10:58:47.025Z,130
2018-11-03T10:59:55.930Z,130
2018-11-03T11:01:04.570Z,125
2018-11-03T11:02:13.207Z,125
2018-11-03T11:03:21.918Z,125
2018-11-03T11:04:30.496Z,125
2018-11-03T11:05:39.131Z,120
2018-11-03T11:06:47.772Z,110
2018-11-03T11:07:56.667Z,110
2018-11-03T11:09:05.574Z,105
2018-11-03T11:10:14.221Z,110
2018-11-03T11:11:22.852Z,115
2018-11-03T11:12:31.486Z,115
2018-11-03T11:13:40.132Z,105
2018-11-03T11:14:48.769Z,100
2018-11-03T11:15:57.512Z,110
2018-11-03T11:17:06.697Z,110
2018-11-03T11:18:15.214Z,110
2018-11-03T11:19:23.852Z,115
2018-11-03T11:20:32.495Z,115
2018-11-03T11:21:41.405Z,100
2018-11-03T11:22:50.039Z,115
2018-11-03T11:23:58.993Z,120
2018-11-03T11:25:07.802Z,120
2018-11-03T11:26:16.234Z,115
2018-11-03T11:27:24.877Z,110
2018-11-03T11:28:33.515Z,110
2018-11-03T11:29:42.152Z,115
2018-11-03T11:30:50.785Z,110
2018-11-03T11:31:59.431Z,115
2018-11-03T11:33:08.340Z,120
2018-11-03T11:34:16.982Z,120
2018-11-03T11:35:25.615Z,120
2018-11-03T11:36:34.563Z,120
2018-11-03T11:37:43.797Z,120
2018-11-03T11:38:52.356Z,115
2018-11-03T11:40:00.999Z,120
2018-11-03T11:41:09.634Z,115
2018-11-03T11:42:18.272Z,115
2018-11-03T11:43:26.913Z,110
2018-11-03T11:44:35.557Z,110
2018-11-03T11:45:44.191Z,115
2018-11-03T11:46:53.098Z,120
2018-11-03T11:48:01.739Z,125
2018-11-03T11:49:10.386Z,125
2018-11-03T11:50:19.018Z,125
2018-11-03T11:51:27.922Z,130
2018-11-03T11:52:36.559Z,125
2018-11-03T11:53:45.204Z,115
2018-11-03T11:54:53.907Z,115
2018-11-03T11:56:02.477Z,110
2018-11-03T11:57:11.118Z,125
2018-11-03T11:58:20.029Z,115
2018-11-03T11:59:28.672Z,130
2018-11-03T12:00:37.732Z,125
2018-11-03T12:01:46.346Z,130
2018-11-03T12:02:54.988Z,125
2018-11-03T12:04:03.898Z,120
2018-11-03T12:05:12.536Z,115
2018-11-03T12:06:21.174Z,120
2018-11-03T12:07:29.811Z,120
2018-11-03T12:08:38.454Z,115
2018-11-03T12:09:47.100Z,115
2018-11-03T12:10:55.742Z,120
2018-11-03T12:12:04.378Z,115
2018-11-03T12:13:13.019Z,125
2018-11-03T12:14:21.660Z,120
2018-11-03T12:15:30.305Z,120
2018-11-03T12:16:39.503Z,120
2018-11-03T12:17:48.408Z,125
2018-11-03T12:18:57.047Z,120
2018-11-03T12:20:05.688Z,120
2018-11-03T12:21:14.331Z,125
2018-11-03T12:22:22.964Z,125
2018-11-03T12:23:31.609Z,120
2018-11-03T12:24:40.243Z,120
2018-11-03T12:25:49.649Z,130
2018-11-03T12:26:58.363Z,120
2018-11-03T12:28:07.052Z,120
2018-11-03T12:29:15.652Z,120
2018-11-03T12:30:24.302Z,120
2018-11-03T12:31:32.937Z,120
2018-11-03T12:32:41.573Z,120
2018-11-03T12:33:50.210Z,120
2018-11-03T12:34:58.885Z,120
2018-11-03T12:36:08.719Z,120
2018-11-03T12:37:17.992Z,120
2018-11-03T12:38:27.475Z,120
2018-11-03T12:39:36.717Z,120
2018-11-03T12:40:45.778Z,120
2018-11-03T12:41:54.700Z,120
2018-11-03T12:43:03.340Z,120
2018-11-03T12:44:11.971Z,125
2018-11-03T12:45:20.620Z,115
2018-11-03T12:46:29.259Z,115
2018-11-03T12:47:37.896Z,115
2018-11-03T12:48:46.597Z,115
2018-11-03T12:49:55.171Z,115
2018-11-03T12:51:03.817Z,115
2018-11-03T12:52:12.465Z,115
2018-11-03T12:53:21.107Z,115
2018-11-03T12:54:29.737Z,110
2018-11-03T12:55:38.650Z,110
2018-11-03T12:56:47.285Z,110
2018-11-03T12:57:55.933Z,110
2018-11-03T12:59:04.587Z,110
2018-11-03T13:00:13.218Z,115
2018-11-03T13:01:22.158Z,110
2018-11-03T13:02:30.818Z,110
2018-11-03T13:03:39.685Z,110
2018-11-03T13:04:48.348Z,115
2018-11-03T13:05:56.964Z,105
2018-11-03T13:07:05.613Z,110
2018-11-03T13:08:14.254Z,110
2018-11-03T13:09:22.889Z,110
2018-11-03T13:10:31.528Z,105
2018-11-03T13:11:40.430Z,105
2018-11-03T13:12:49.079Z,105
2018-11-03T13:13:57.712Z,105
2018-11-03T13:15:06.360Z,105
2018-11-03T13:16:14.991Z,105
2018-11-03T13:17:23.638Z,100
2018-11-03T13:18:32.276Z,105
2018-11-03T13:19:40.918Z,105
2018-11-03T13:20:49.561Z,90
2018-11-03T13:21:58.196Z,95
2018-11-03T13:23:06.838Z,100
2018-11-03T13:24:15.478Z,100
2018-11-03T13:25:24.122Z,100
2018-11-03T13:26:32.756Z,100
2018-11-03T13:27:41.665Z,100
2018-11-03T13:28:50.569Z,100
2018-11-03T13:29:59.206Z,100
2018-11-03T13:31:07.851Z,100
2018-11-03T13:32:16.491Z,100
2018-11-03T13:33:25.133Z,100
2018-11-03T13:34:34.033Z,95
2018-11-03T13:35:42.680Z,95
2018-11-03T13:36:51.580Z,100
2018-11-03T13:38:00.223Z,100
2018-11-03T13:39:08.863Z,100
2018-11-03T13:40:17.504Z,95
2018-11-03T13:41:26.139Z,95
2018-11-03T13:42:34.782Z,90
2018-11-03T13:43:43.692Z,90
2018-11-03T13:44:52.336Z,90
2018-11-03T13:46:00.977Z,95
2018-11-03T13:47:09.643Z,90
2018-11-03T13:48:18.262Z,90
2018-11-03T13:49:26.897Z,90
2018-11-03T13:50:35.802Z,90
2018-11-03T13:51:44.441Z,85
2018-11-03T13:52:53.349Z,85
2018-11-03T13:54:01.987Z,85
2018-11-03T13:55:10.626Z,85
2018-11-03T13:56:19.264Z,85
2018-11-03T13:57:27.906Z,85
2018-11-03T13:58:36.803Z,85
2018-11-03T13:59:45.446Z,80
2018-11-03T14:00:54.343Z,80
2018-11-03T14:02:02.988Z,80
2018-11-03T14:03:11.627Z,80
2018-11-03T14:04:20.273Z,80
2018-11-03T14:05:28.909Z,80
2018-11-03T14:06:37.548Z,75
2018-11-03T14:07:46.190Z,75
2018-11-03T14:08:54.824Z,75
2018-11-03T14:10:03.467Z,75
2018-11-03T14:11:12.608Z,75
2018-11-03T14:12:21.377Z,75
2018-11-03T14:13:30.018Z,70
2018-11-03T14:14:38.922Z,70
2018-11-03T14:15:47.558Z,70
2018-11-03T14:16:56.481Z,65
2018-11-03T14:18:05.114Z,70
2018-11-03T14:19:14.020Z,65
2018-11-03T14:20:22.921Z,65
2018-11-03T14:21:31.563Z,70
2018-11-03T14:22:40.206Z,70
2018-11-03T14:23:48.849Z,70
2018-11-03T14:24:57.491Z,65
2018-11-03T14:26:06.120Z,65
2018-11-03T14:27:14.762Z,65
2018-11-03T14:28:23.394Z,65
2018-11-03T14:29:32.042Z,65
2018-11-03T14:30:40.680Z,65
2018-11-03T14:31:49.588Z,65
2018-11-03T14:32:58.222Z,65
2018-11-03T14:34:07.137Z,60
2018-11-03T14:35:15.768Z,60
2018-11-03T14:36:24.505Z,60
2018-11-03T14:37:33.447Z,60
2018-11-03T14:38:42.097Z,60
2018-11-03T14:39:50.734Z,60
2018-11-03T14:40:59.374Z,60
2018-11-03T14:42:08.274Z,55
2018-11-03T14:43:16.913Z,55
2018-11-03T14:44:25.572Z,55
2018-11-03T14:45:34.743Z,55
2018-11-03T14:46:43.404Z,55
2018-11-03T14:47:52.017Z,55
2018-11-03T14:49:01.202Z,50
2018-11-03T14:50:09.837Z,50
2018-11-03T14:51:18.481Z,50
2018-11-03T14:52:27.115Z,50
2018-11-03T14:53:36.642Z,50
2018-11-03T14:54:45.281Z,50
2018-11-03T14:55:53.921Z,45
2018-11-03T14:57:02.815Z,45
2018-11-03T14:58:11.459Z,45
2018-11-03T14:59:20.103Z,45
2018-11-03T15:00:29.013Z,45
2018-11-03T15:01:37.654Z,45
2018-11-03T15:02:46.285Z,45
2018-11-03T15:03:54.926Z,40
2018-11-03T15:05:03.562Z,40
2018-11-03T15:06:12.212Z,40
2018-11-03T15:07:20.841Z,40
2018-11-03T15:08:29.860Z,40
2018-11-03T15:09:38.470Z,40
2018-11-03T15:10:47.123Z,35
2018-11-03T15:11:55.751Z,35
2018-11-03T15:13:04.392Z,35
2018-11-03T15:14:13.195Z,35
2018-11-03T15:15:21.678Z,35
2018-11-03T15:16:30.315Z,35
2018-11-03T15:17:38.949Z,30
2018-11-03T15:18:47.592Z,30
2018-11-03T15:19:56.234Z,30
2018-11-03T15:21:05.136Z,30
2018-11-03T15:22:13.785Z,30
2018-11-03T15:23:22.414Z,30
2018-11-03T15:24:31.062Z,25
2018-11-03T15:25:39.693Z,25
2018-11-03T15:26:48.335Z,25
2018-11-03T15:27:56.973Z,25
2018-11-03T15:29:05.617Z,25
2018-11-03T15:30:14.513Z,25
2018-11-03T15:31:23.155Z,20
2018-11-03T15:32:32.064Z,20
2018-11-03T15:33:41.416Z,20
2018-11-03T15:34:50.355Z,20
2018-11-03T15:35:58.977Z,15
2018-11-03T15:37:07.612Z,15
2018-11-03T15:38:16.247Z,15
2018-11-03T15:39:24.900Z,15
2018-11-03T15:40:33.535Z,15
2018-11-03T15:41:42.180Z,10
2018-11-03T15:42:50.810Z,10
2018-11-03T15:43:59.718Z,10
2018-11-03T15:45:08.352Z,10
2018-11-03T15:46:16.997Z,10
2018-11-03T15:47:25.625Z,10
2018-11-03T15:48:34.535Z,5
2018-11-03T15:49:43.172Z,5
2018-11-03T15:50:51.816Z,5
2018-11-03T15:52:00.449Z,5
2018-11-03T15:53:09.090Z,5
2018-11-03T15:54:17.997Z,5
2018-11-03T15:55:26.668Z,5
2018-11-03T15:56:35.284Z,5
2018-11-03T15:57:43.918Z,0
2018-11-03T15:58:52.560Z,0
2018-11-03T16:00:01.195Z,0
2018-11-03T16:01:09.842Z,0
2018-11-03T16:02:18.729Z,0
2018-11-03T16:03:27.372Z,0
2018-11-03T16:04:36.005Z,0
2018-11-03T16:05:44.650Z,0
2018-11-03T16:06:53.281Z,0
2018-11-03T16:08:01.919Z,0
2018-11-03T16:09:10.555Z,0
2018-11-03T16:10:19.469Z,0
2018-11-03T16:11:28.101Z,0
2018-11-03T16:12:36.768Z,0
2018-11-03T16:13:45.373Z,0
2018-11-03T16:14:54.273Z,0
2018-11-03T16:16:02.925Z,0
2018-11-03T16:17:11.823Z,0
2018-11-03T16:18:20.461Z,0
2018-11-03T16:19:29.115Z,0
2018-11-03T16:20:37.740Z,0
2018-11-03T16:21:46.374Z,0
2018-11-03T16:22:55.135Z,0
2018-11-03T16:24:03.651Z,0